sensor_id;sensor_type;location;lat;lon;timestamp;pressure;altitude;pressure_sealevel;temperature;humidity
55517;BME280;41724;51.176;-0.708;2024-02-21T00:00:49;101594.30;;;9.92;92.32
55517;BME280;41724;51.176;-0.708;2024-02-21T00:03:16;101582.05;;;9.10;94.29
55517;BME280;41724;51.176;-0.708;2024-02-21T00:05:43;101581.00;;;9.62;94.24
55517;BME280;41724;51.176;-0.708;2024-02-21T00:08:10;101583.15;;;9.56;93.36
55517;BME280;41724;51.176;-0.708;2024-02-21T00:10:37;101579.11;;;10.66;90.17
55517;BME280;41724;51.176;-0.708;2024-02-21T00:13:04;101576.42;;;10.61;89.65
55517;BME280;41724;51.176;-0.708;2024-02-21T00:15:31;101578.16;;;9.97;88.01
55517;BME280;41724;51.176;-0.708;2024-02-21T00:17:57;101571.94;;;9.14;91.80
55517;BME280;41724;51.176;-0.708;2024-02-21T00:20:24;101581.16;;;9.43;93.84
55517;BME280;41724;51.176;-0.708;2024-02-21T00:22:52;101575.61;;;9.83;91.92
55517;BME280;41724;51.176;-0.708;2024-02-21T00:25:19;101571.37;;;10.56;88.01
55517;BME280;41724;51.176;-0.708;2024-02-21T00:27:46;101566.62;;;10.14;90.88
55517;BME280;41724;51.176;-0.708;2024-02-21T00:30:14;101559.89;;;10.32;87.45
55517;BME280;41724;51.176;-0.708;2024-02-21T00:32:40;101558.53;;;10.30;86.55
55517;BME280;41724;51.176;-0.708;2024-02-21T00:35:08;101553.59;;;10.70;85.76
55517;BME280;41724;51.176;-0.708;2024-02-21T00:37:35;101550.35;;;11.09;84.22
55517;BME280;41724;51.176;-0.708;2024-02-21T00:40:03;101551.76;;;11.93;80.12
55517;BME280;41724;51.176;-0.708;2024-02-21T00:42:30;101558.68;;;11.96;78.80
55517;BME280;41724;51.176;-0.708;2024-02-21T00:44:57;101553.86;;;12.07;79.04
55517;BME280;41724;51.176;-0.708;2024-02-21T00:47:24;101550.94;;;12.17;78.76
55517;BME280;41724;51.176;-0.708;2024-02-21T00:49:51;101552.62;;;11.56;80.00
55517;BME280;41724;51.176;-0.708;2024-02-21T00:52:18;101542.81;;;11.64;81.53
55517;BME280;41724;51.176;-0.708;2024-02-21T00:54:45;101536.56;;;10.85;84.60
55517;BME280;41724;51.176;-0.708;2024-02-21T00:57:11;101526.71;;;9.91;88.44
55517;BME280;41724;51.176;-0.708;2024-02-21T00:59:39;101525.80;;;10.63;85.21
55517;BME280;41724;51.176;-0.708;2024-02-21T01:02:06;101521.10;;;11.41;83.18
55517;BME280;41724;51.176;-0.708;2024-02-21T01:04:34;101511.30;;;10.81;84.66
55517;BME280;41724;51.176;-0.708;2024-02-21T01:07:01;101504.15;;;9.94;89.62
55517;BME280;41724;51.176;-0.708;2024-02-21T01:09:29;101497.61;;;10.03;90.60
55517;BME280;41724;51.176;-0.708;2024-02-21T01:11:56;101494.83;;;10.66;86.86
55517;BME280;41724;51.176;-0.708;2024-02-21T01:14:23;101487.54;;;9.42;93.14
55517;BME280;41724;51.176;-0.708;2024-02-21T01:16:50;101481.13;;;9.62;93.48
55517;BME280;41724;51.176;-0.708;2024-02-21T01:19:17;101476.99;;;10.45;88.36
55517;BME280;41724;51.176;-0.708;2024-02-21T01:21:44;101474.23;;;10.83;86.07
55517;BME280;41724;51.176;-0.708;2024-02-21T01:24:11;101470.24;;;9.88;89.20
55517;BME280;41724;51.176;-0.708;2024-02-21T01:26:38;101459.84;;;11.23;84.33
55517;BME280;41724;51.176;-0.708;2024-02-21T01:29:05;101457.17;;;11.39;83.58
55517;BME280;41724;51.176;-0.708;2024-02-21T01:31:32;101458.04;;;9.79;88.43
55517;BME280;41724;51.176;-0.708;2024-02-21T01:33:59;101461.39;;;10.53;88.57
55517;BME280;41724;51.176;-0.708;2024-02-21T01:36:27;101450.40;;;10.80;86.94
55517;BME280;41724;51.176;-0.708;2024-02-21T01:38:53;101443.06;;;11.40;83.52
55517;BME280;41724;51.176;-0.708;2024-02-21T01:41:21;101445.13;;;10.85;84.05
55517;BME280;41724;51.176;-0.708;2024-02-21T01:43:48;101433.52;;;9.97;87.74
55517;BME280;41724;51.176;-0.708;2024-02-21T01:46:15;101423.29;;;10.32;86.76
55517;BME280;41724;51.176;-0.708;2024-02-21T01:48:42;101412.55;;;11.93;81.54
55517;BME280;41724;51.176;-0.708;2024-02-21T01:51:09;101409.71;;;10.88;83.71
55517;BME280;41724;51.176;-0.708;2024-02-21T01:53:38;101406.16;;;10.62;85.34
55517;BME280;41724;51.176;-0.708;2024-02-21T01:56:08;101405.90;;;10.18;86.27
55517;BME280;41724;51.176;-0.708;2024-02-21T01:58:36;101387.87;;;9.87;89.19
55517;BME280;41724;51.176;-0.708;2024-02-21T02:01:03;101380.38;;;9.23;92.82
55517;BME280;41724;51.176;-0.708;2024-02-21T02:03:31;101371.78;;;9.49;90.50
55517;BME280;41724;51.176;-0.708;2024-02-21T02:05:58;101371.61;;;10.12;89.68
55517;BME280;41724;51.176;-0.708;2024-02-21T02:08:26;101367.54;;;9.84;89.30
55517;BME280;41724;51.176;-0.708;2024-02-21T02:10:54;101359.36;;;10.53;86.35
55517;BME280;41724;51.176;-0.708;2024-02-21T02:13:21;101347.52;;;10.20;86.67
55517;BME280;41724;51.176;-0.708;2024-02-21T02:15:49;101344.01;;;10.85;83.51
55517;BME280;41724;51.176;-0.708;2024-02-21T02:18:17;101340.54;;;10.32;87.71
55517;BME280;41724;51.176;-0.708;2024-02-21T02:20:45;101327.60;;;10.08;88.53
55517;BME280;41724;51.176;-0.708;2024-02-21T02:23:18;101319.43;;;10.67;86.17
55517;BME280;41724;51.176;-0.708;2024-02-21T02:25:46;101310.77;;;11.37;82.61
55517;BME280;41724;51.176;-0.708;2024-02-21T02:28:13;101300.46;;;10.50;85.33
55517;BME280;41724;51.176;-0.708;2024-02-21T02:30:40;101296.41;;;11.00;82.69
55517;BME280;41724;51.176;-0.708;2024-02-21T02:33:07;101274.59;;;10.98;82.47
55517;BME280;41724;51.176;-0.708;2024-02-21T02:35:34;101268.04;;;11.95;79.93
55517;BME280;41724;51.176;-0.708;2024-02-21T02:38:01;101294.76;;;11.23;80.79
55517;BME280;41724;51.176;-0.708;2024-02-21T02:40:29;101306.40;;;10.83;82.23
55517;BME280;41724;51.176;-0.708;2024-02-21T02:42:56;101302.96;;;10.20;85.86
55517;BME280;41724;51.176;-0.708;2024-02-21T02:45:24;101313.01;;;10.44;85.51
55517;BME280;41724;51.176;-0.708;2024-02-21T02:47:52;101322.42;;;9.91;87.64
55517;BME280;41724;51.176;-0.708;2024-02-21T02:50:19;101309.14;;;9.83;88.02
55517;BME280;41724;51.176;-0.708;2024-02-21T02:52:46;101305.19;;;9.72;90.44
55517;BME280;41724;51.176;-0.708;2024-02-21T02:55:13;101315.94;;;10.19;86.67
55517;BME280;41724;51.176;-0.708;2024-02-21T02:57:40;101299.67;;;9.88;87.51
55517;BME280;41724;51.176;-0.708;2024-02-21T03:00:08;101296.36;;;10.42;87.77
55517;BME280;41724;51.176;-0.708;2024-02-21T03:02:39;101298.51;;;9.88;87.66
55517;BME280;41724;51.176;-0.708;2024-02-21T03:05:13;101288.10;;;10.09;86.08
55517;BME280;41724;51.176;-0.708;2024-02-21T03:07:40;101290.17;;;10.68;83.72
55517;BME280;41724;51.176;-0.708;2024-02-21T03:10:08;101278.11;;;10.96;82.75
55517;BME280;41724;51.176;-0.708;2024-02-21T03:12:35;101273.26;;;10.87;83.91
55517;BME280;41724;51.176;-0.708;2024-02-21T03:15:02;101260.69;;;10.42;84.53
55517;BME280;41724;51.176;-0.708;2024-02-21T03:17:29;101267.31;;;9.75;86.03
55517;BME280;41724;51.176;-0.708;2024-02-21T03:19:57;101253.23;;;10.67;83.36
55517;BME280;41724;51.176;-0.708;2024-02-21T03:22:24;101245.34;;;11.09;80.92
55517;BME280;41724;51.176;-0.708;2024-02-21T03:24:51;101248.40;;;9.84;85.26
55517;BME280;41724;51.176;-0.708;2024-02-21T03:27:18;101254.50;;;10.62;85.50
55517;BME280;41724;51.176;-0.708;2024-02-21T03:29:45;101249.04;;;10.38;84.61
55517;BME280;41724;51.176;-0.708;2024-02-21T03:32:12;101251.64;;;9.77;85.57
55517;BME280;41724;51.176;-0.708;2024-02-21T03:34:40;101234.23;;;10.48;83.74
55517;BME280;41724;51.176;-0.708;2024-02-21T03:37:07;101230.50;;;10.10;86.82
55517;BME280;41724;51.176;-0.708;2024-02-21T03:39:34;101232.05;;;9.66;88.67
55517;BME280;41724;51.176;-0.708;2024-02-21T03:42:02;101228.84;;;9.56;88.13
55517;BME280;41724;51.176;-0.708;2024-02-21T03:44:29;101223.85;;;9.64;89.58
55517;BME280;41724;51.176;-0.708;2024-02-21T03:46:57;101205.66;;;8.60;94.42
55517;BME280;41724;51.176;-0.708;2024-02-21T03:49:24;101201.94;;;8.71;93.76
55517;BME280;41724;51.176;-0.708;2024-02-21T03:51:51;101199.50;;;9.17;92.82
55517;BME280;41724;51.176;-0.708;2024-02-21T03:54:18;101190.00;;;9.35;91.86
55517;BME280;41724;51.176;-0.708;2024-02-21T03:56:45;101187.11;;;9.14;90.61
55517;BME280;41724;51.176;-0.708;2024-02-21T03:59:13;101182.42;;;9.57;89.63
55517;BME280;41724;51.176;-0.708;2024-02-21T04:01:39;101176.54;;;9.61;88.56
55517;BME280;41724;51.176;-0.708;2024-02-21T04:04:07;101175.34;;;9.78;90.05
55517;BME280;41724;51.176;-0.708;2024-02-21T04:06:34;101168.12;;;9.14;91.63
55517;BME280;41724;51.176;-0.708;2024-02-21T04:09:01;101164.51;;;10.36;86.00
55517;BME280;41724;51.176;-0.708;2024-02-21T04:11:28;101160.62;;;9.39;89.50
55517;BME280;41724;51.176;-0.708;2024-02-21T04:13:55;101152.89;;;9.51;87.71
55517;BME280;41724;51.176;-0.708;2024-02-21T04:16:22;101154.21;;;9.17;89.65
55517;BME280;41724;51.176;-0.708;2024-02-21T04:18:49;101135.48;;;10.15;86.23
55517;BME280;41724;51.176;-0.708;2024-02-21T04:21:17;101133.69;;;9.47;89.13
55517;BME280;41724;51.176;-0.708;2024-02-21T04:23:44;101127.79;;;9.49;89.34
55517;BME280;41724;51.176;-0.708;2024-02-21T04:26:11;101126.90;;;9.01;89.45
55517;BME280;41724;51.176;-0.708;2024-02-21T04:28:38;101125.91;;;8.98;93.19
55517;BME280;41724;51.176;-0.708;2024-02-21T04:31:05;101109.53;;;9.51;89.15
55517;BME280;41724;51.176;-0.708;2024-02-21T04:33:32;101104.24;;;9.17;90.93
55517;BME280;41724;51.176;-0.708;2024-02-21T04:36:00;101104.99;;;9.62;87.64
55517;BME280;41724;51.176;-0.708;2024-02-21T04:38:27;101091.47;;;9.80;86.59
55517;BME280;41724;51.176;-0.708;2024-02-21T04:40:54;101079.94;;;9.24;88.96
55517;BME280;41724;51.176;-0.708;2024-02-21T04:43:21;101072.07;;;9.40;87.56
55517;BME280;41724;51.176;-0.708;2024-02-21T04:45:49;101071.76;;;9.12;90.14
55517;BME280;41724;51.176;-0.708;2024-02-21T04:48:16;101065.14;;;9.80;87.39
55517;BME280;41724;51.176;-0.708;2024-02-21T04:50:43;101058.08;;;9.38;89.62
55517;BME280;41724;51.176;-0.708;2024-02-21T04:53:10;101053.75;;;9.03;90.99
55517;BME280;41724;51.176;-0.708;2024-02-21T04:55:37;101062.82;;;9.06;90.39
55517;BME280;41724;51.176;-0.708;2024-02-21T04:58:05;101052.43;;;9.37;90.23
55517;BME280;41724;51.176;-0.708;2024-02-21T05:00:32;101043.21;;;9.03;91.18
55517;BME280;41724;51.176;-0.708;2024-02-21T05:02:59;101043.85;;;9.23;90.40
55517;BME280;41724;51.176;-0.708;2024-02-21T05:05:26;101033.96;;;9.71;88.60
55517;BME280;41724;51.176;-0.708;2024-02-21T05:07:53;101031.15;;;9.43;88.96
55517;BME280;41724;51.176;-0.708;2024-02-21T05:10:20;101025.54;;;9.28;90.03
55517;BME280;41724;51.176;-0.708;2024-02-21T05:12:47;101019.25;;;9.32;89.71
55517;BME280;41724;51.176;-0.708;2024-02-21T05:15:14;101014.06;;;9.92;86.30
55517;BME280;41724;51.176;-0.708;2024-02-21T05:17:41;101003.87;;;9.60;88.23
55517;BME280;41724;51.176;-0.708;2024-02-21T05:20:09;100997.60;;;9.94;86.22
55517;BME280;41724;51.176;-0.708;2024-02-21T05:22:36;100982.52;;;9.42;89.91
55517;BME280;41724;51.176;-0.708;2024-02-21T05:25:04;100977.55;;;9.62;88.09
55517;BME280;41724;51.176;-0.708;2024-02-21T05:27:31;100968.55;;;9.50;89.58
55517;BME280;41724;51.176;-0.708;2024-02-21T05:29:59;100980.92;;;8.41;94.92
55517;BME280;41724;51.176;-0.708;2024-02-21T05:32:26;100988.00;;;9.48;94.72
55517;BME280;41724;51.176;-0.708;2024-02-21T05:34:53;100983.03;;;9.26;95.07
55517;BME280;41724;51.176;-0.708;2024-02-21T05:37:20;100992.67;;;8.77;97.89
55517;BME280;41724;51.176;-0.708;2024-02-21T05:39:47;100987.01;;;8.66;100.00
55517;BME280;41724;51.176;-0.708;2024-02-21T05:42:15;100971.34;;;9.25;99.81
55517;BME280;41724;51.176;-0.708;2024-02-21T05:44:42;100963.25;;;8.35;100.00
55517;BME280;41724;51.176;-0.708;2024-02-21T05:47:09;100956.27;;;8.53;100.00
55517;BME280;41724;51.176;-0.708;2024-02-21T05:49:36;100938.14;;;8.53;100.00
55517;BME280;41724;51.176;-0.708;2024-02-21T05:52:04;100928.82;;;9.68;99.06
55517;BME280;41724;51.176;-0.708;2024-02-21T05:54:31;100931.12;;;8.63;100.00
55517;BME280;41724;51.176;-0.708;2024-02-21T05:56:58;100916.71;;;9.11;100.00
55517;BME280;41724;51.176;-0.708;2024-02-21T05:59:26;100901.61;;;9.00;100.00
55517;BME280;41724;51.176;-0.708;2024-02-21T06:01:56;100888.64;;;9.85;99.88
55517;BME280;41724;51.176;-0.708;2024-02-21T06:04:23;100894.62;;;9.59;100.00
55517;BME280;41724;51.176;-0.708;2024-02-21T06:06:50;100889.92;;;9.79;97.39
55517;BME280;41724;51.176;-0.708;2024-02-21T06:09:17;100873.28;;;10.48;95.45
55517;BME280;41724;51.176;-0.708;2024-02-21T06:11:44;100885.83;;;9.47;99.08
55517;BME280;41724;51.176;-0.708;2024-02-21T06:14:11;100869.80;;;9.53;100.00
55517;BME280;41724;51.176;-0.708;2024-02-21T06:16:39;100849.72;;;10.16;98.41
55517;BME280;41724;51.176;-0.708;2024-02-21T06:19:06;100850.42;;;9.56;98.94
55517;BME280;41724;51.176;-0.708;2024-02-21T06:21:34;100835.40;;;10.28;97.00
55517;BME280;41724;51.176;-0.708;2024-02-21T06:24:01;100831.11;;;9.68;99.01
55517;BME280;41724;51.176;-0.708;2024-02-21T06:26:28;100832.31;;;9.40;100.00
55517;BME280;41724;51.176;-0.708;2024-02-21T06:28:55;100820.93;;;9.99;100.00
55517;BME280;41724;51.176;-0.708;2024-02-21T06:31:22;100808.62;;;8.83;100.00
55517;BME280;41724;51.176;-0.708;2024-02-21T06:33:49;100798.99;;;8.76;100.00
55517;BME280;41724;51.176;-0.708;2024-02-21T06:36:16;100792.35;;;9.00;100.00
55517;BME280;41724;51.176;-0.708;2024-02-21T06:38:44;100804.94;;;9.06;100.00
55517;BME280;41724;51.176;-0.708;2024-02-21T06:41:15;100796.81;;;9.09;100.00
55517;BME280;41724;51.176;-0.708;2024-02-21T06:43:42;100789.11;;;9.43;100.00
55517;BME280;41724;51.176;-0.708;2024-02-21T06:46:09;100786.15;;;9.07;100.00
55517;BME280;41724;51.176;-0.708;2024-02-21T06:48:36;100767.67;;;9.84;100.00
55517;BME280;41724;51.176;-0.708;2024-02-21T06:51:04;100767.89;;;9.35;100.00
55517;BME280;41724;51.176;-0.708;2024-02-21T06:53:31;100766.50;;;9.17;100.00
55517;BME280;41724;51.176;-0.708;2024-02-21T06:55:58;100770.37;;;9.39;100.00
55517;BME280;41724;51.176;-0.708;2024-02-21T06:58:25;100760.75;;;10.43;99.33
55517;BME280;41724;51.176;-0.708;2024-02-21T07:00:52;100755.16;;;9.86;100.00
55517;BME280;41724;51.176;-0.708;2024-02-21T07:03:19;100765.89;;;8.63;100.00
55517;BME280;41724;51.176;-0.708;2024-02-21T07:05:46;100750.65;;;9.38;100.00
55517;BME280;41724;51.176;-0.708;2024-02-21T07:08:13;100747.33;;;8.74;100.00
55517;BME280;41724;51.176;-0.708;2024-02-21T07:10:41;100746.26;;;9.03;100.00
55517;BME280;41724;51.176;-0.708;2024-02-21T07:13:08;100736.80;;;8.73;100.00
55517;BME280;41724;51.176;-0.708;2024-02-21T07:15:35;100733.58;;;8.65;100.00
55517;BME280;41724;51.176;-0.708;2024-02-21T07:18:02;100716.72;;;9.27;100.00
55517;BME280;41724;51.176;-0.708;2024-02-21T07:20:30;100717.47;;;8.96;100.00
55517;BME280;41724;51.176;-0.708;2024-02-21T07:22:57;100704.88;;;8.86;100.00
55517;BME280;41724;51.176;-0.708;2024-02-21T07:25:24;100703.17;;;8.03;100.00
55517;BME280;41724;51.176;-0.708;2024-02-21T07:27:51;100705.56;;;8.27;100.00
55517;BME280;41724;51.176;-0.708;2024-02-21T07:30:19;100681.98;;;8.92;100.00
55517;BME280;41724;51.176;-0.708;2024-02-21T07:32:48;100680.23;;;9.08;100.00
55517;BME280;41724;51.176;-0.708;2024-02-21T07:35:15;100677.99;;;8.58;100.00
55517;BME280;41724;51.176;-0.708;2024-02-21T07:37:42;100679.17;;;8.11;100.00
55517;BME280;41724;51.176;-0.708;2024-02-21T07:40:14;100675.95;;;8.64;100.00
55517;BME280;41724;51.176;-0.708;2024-02-21T07:42:42;100659.40;;;8.29;100.00
55517;BME280;41724;51.176;-0.708;2024-02-21T07:45:10;100662.56;;;7.34;100.00
55517;BME280;41724;51.176;-0.708;2024-02-21T07:47:37;100646.32;;;8.11;100.00
55517;BME280;41724;51.176;-0.708;2024-02-21T07:50:05;100640.76;;;8.79;100.00
55517;BME280;41724;51.176;-0.708;2024-02-21T07:52:32;100645.22;;;8.91;100.00
55517;BME280;41724;51.176;-0.708;2024-02-21T07:54:59;100641.80;;;8.49;100.00
55517;BME280;41724;51.176;-0.708;2024-02-21T07:57:27;100629.83;;;7.28;100.00
55517;BME280;41724;51.176;-0.708;2024-02-21T07:59:54;100616.94;;;7.77;100.00
55517;BME280;41724;51.176;-0.708;2024-02-21T08:02:21;100618.68;;;8.23;100.00
55517;BME280;41724;51.176;-0.708;2024-02-21T08:04:49;100612.92;;;8.31;100.00
55517;BME280;41724;51.176;-0.708;2024-02-21T08:07:16;100609.41;;;8.95;100.00
55517;BME280;41724;51.176;-0.708;2024-02-21T08:09:43;100607.06;;;8.55;100.00
55517;BME280;41724;51.176;-0.708;2024-02-21T08:12:10;100594.29;;;8.04;100.00
55517;BME280;41724;51.176;-0.708;2024-02-21T08:14:37;100589.65;;;8.39;100.00
55517;BME280;41724;51.176;-0.708;2024-02-21T08:17:04;100593.95;;;7.80;100.00
55517;BME280;41724;51.176;-0.708;2024-02-21T08:19:31;100581.74;;;8.10;100.00
55517;BME280;41724;51.176;-0.708;2024-02-21T08:21:58;100578.17;;;9.34;100.00
55517;BME280;41724;51.176;-0.708;2024-02-21T08:24:26;100573.74;;;8.59;100.00
55517;BME280;41724;51.176;-0.708;2024-02-21T08:26:53;100569.29;;;7.94;100.00
55517;BME280;41724;51.176;-0.708;2024-02-21T08:29:20;100568.34;;;8.13;100.00
55517;BME280;41724;51.176;-0.708;2024-02-21T08:31:48;100554.26;;;8.01;100.00
55517;BME280;41724;51.176;-0.708;2024-02-21T08:34:15;100556.59;;;8.25;100.00
55517;BME280;41724;51.176;-0.708;2024-02-21T08:36:43;100556.48;;;8.56;100.00
55517;BME280;41724;51.176;-0.708;2024-02-21T08:39:10;100557.03;;;8.84;100.00
55517;BME280;41724;51.176;-0.708;2024-02-21T08:41:37;100549.66;;;9.01;100.00
55517;BME280;41724;51.176;-0.708;2024-02-21T08:44:05;100540.62;;;7.73;100.00
55517;BME280;41724;51.176;-0.708;2024-02-21T08:46:32;100543.80;;;8.40;100.00
55517;BME280;41724;51.176;-0.708;2024-02-21T08:48:59;100525.26;;;7.55;100.00
55517;BME280;41724;51.176;-0.708;2024-02-21T08:51:26;100526.31;;;7.67;100.00
55517;BME280;41724;51.176;-0.708;2024-02-21T08:53:53;100515.05;;;7.81;100.00
55517;BME280;41724;51.176;-0.708;2024-02-21T08:56:20;100512.07;;;8.01;100.00
55517;BME280;41724;51.176;-0.708;2024-02-21T08:58:47;100510.65;;;8.05;100.00
55517;BME280;41724;51.176;-0.708;2024-02-21T09:01:15;100506.43;;;8.53;100.00
55517;BME280;41724;51.176;-0.708;2024-02-21T09:03:42;100493.76;;;7.55;100.00
55517;BME280;41724;51.176;-0.708;2024-02-21T09:06:10;100487.73;;;8.19;100.00
55517;BME280;41724;51.176;-0.708;2024-02-21T09:08:38;100482.49;;;8.54;100.00
55517;BME280;41724;51.176;-0.708;2024-02-21T09:11:06;100481.74;;;8.63;100.00
55517;BME280;41724;51.176;-0.708;2024-02-21T09:13:33;100482.62;;;7.76;100.00
55517;BME280;41724;51.176;-0.708;2024-02-21T09:16:00;100479.64;;;8.26;100.00
55517;BME280;41724;51.176;-0.708;2024-02-21T09:18:27;100470.73;;;8.27;100.00
55517;BME280;41724;51.176;-0.708;2024-02-21T09:20:54;100464.09;;;7.45;100.00
55517;BME280;41724;51.176;-0.708;2024-02-21T09:23:24;100450.93;;;7.81;100.00
55517;BME280;41724;51.176;-0.708;2024-02-21T09:25:51;100450.98;;;8.00;100.00
55517;BME280;41724;51.176;-0.708;2024-02-21T09:28:18;100450.30;;;8.40;100.00
55517;BME280;41724;51.176;-0.708;2024-02-21T09:30:46;100446.92;;;8.06;100.00
55517;BME280;41724;51.176;-0.708;2024-02-21T09:33:13;100435.30;;;8.36;100.00
55517;BME280;41724;51.176;-0.708;2024-02-21T09:35:40;100436.54;;;8.14;100.00
55517;BME280;41724;51.176;-0.708;2024-02-21T09:38:07;100430.64;;;8.64;100.00
55517;BME280;41724;51.176;-0.708;2024-02-21T09:40:34;100424.66;;;8.14;100.00
55517;BME280;41724;51.176;-0.708;2024-02-21T09:43:03;100422.13;;;8.27;100.00
55517;BME280;41724;51.176;-0.708;2024-02-21T09:45:30;100422.52;;;8.54;100.00
55517;BME280;41724;51.176;-0.708;2024-02-21T09:48:13;100404.88;;;8.35;100.00
55517;BME280;41724;51.176;-0.708;2024-02-21T09:50:46;100397.45;;;8.47;100.00
55517;BME280;41724;51.176;-0.708;2024-02-21T09:53:14;100383.71;;;8.75;100.00
55517;BME280;41724;51.176;-0.708;2024-02-21T09:55:43;100392.82;;;8.79;100.00
55517;BME280;41724;51.176;-0.708;2024-02-21T09:58:10;100376.36;;;8.49;100.00
55517;BME280;41724;51.176;-0.708;2024-02-21T10:00:39;100364.33;;;8.13;100.00
55517;BME280;41724;51.176;-0.708;2024-02-21T10:03:06;100360.63;;;7.22;100.00
55517;BME280;41724;51.176;-0.708;2024-02-21T10:05:33;100363.73;;;7.58;100.00
55517;BME280;41724;51.176;-0.708;2024-02-21T10:08:00;100344.94;;;7.63;100.00
55517;BME280;41724;51.176;-0.708;2024-02-21T10:10:27;100340.05;;;7.76;100.00
55517;BME280;41724;51.176;-0.708;2024-02-21T10:12:54;100320.09;;;8.26;100.00
55517;BME280;41724;51.176;-0.708;2024-02-21T10:15:22;100317.91;;;8.75;100.00
55517;BME280;41724;51.176;-0.708;2024-02-21T10:17:50;100309.10;;;8.63;100.00
55517;BME280;41724;51.176;-0.708;2024-02-21T10:20:17;100301.26;;;9.37;100.00
55517;BME280;41724;51.176;-0.708;2024-02-21T10:22:44;100296.33;;;8.20;100.00
55517;BME280;41724;51.176;-0.708;2024-02-21T10:25:12;100289.16;;;7.82;100.00
55517;BME280;41724;51.176;-0.708;2024-02-21T10:27:40;100284.83;;;8.14;100.00
55517;BME280;41724;51.176;-0.708;2024-02-21T10:30:13;100274.62;;;8.21;100.00
55517;BME280;41724;51.176;-0.708;2024-02-21T10:32:49;100265.96;;;8.02;100.00
55517;BME280;41724;51.176;-0.708;2024-02-21T10:35:26;100259.53;;;8.90;100.00
55517;BME280;41724;51.176;-0.708;2024-02-21T10:37:54;100249.66;;;8.57;100.00
55517;BME280;41724;51.176;-0.708;2024-02-21T10:40:23;100259.72;;;8.99;100.00
55517;BME280;41724;51.176;-0.708;2024-02-21T10:42:56;100248.70;;;8.00;100.00
55517;BME280;41724;51.176;-0.708;2024-02-21T10:45:30;100238.01;;;8.39;100.00
55517;BME280;41724;51.176;-0.708;2024-02-21T10:48:09;100232.15;;;7.94;100.00
55517;BME280;41724;51.176;-0.708;2024-02-21T10:50:47;100220.77;;;8.60;100.00
55517;BME280;41724;51.176;-0.708;2024-02-21T10:53:29;100222.26;;;8.13;100.00
55517;BME280;41724;51.176;-0.708;2024-02-21T10:56:15;100211.58;;;8.50;100.00
55517;BME280;41724;51.176;-0.708;2024-02-21T10:58:44;100210.69;;;7.60;100.00
55517;BME280;41724;51.176;-0.708;2024-02-21T11:01:12;100203.42;;;8.29;100.00
55517;BME280;41724;51.176;-0.708;2024-02-21T11:03:40;100195.92;;;8.43;100.00
55517;BME280;41724;51.176;-0.708;2024-02-21T11:06:09;100194.11;;;7.92;100.00
55517;BME280;41724;51.176;-0.708;2024-02-21T11:08:37;100187.54;;;7.88;100.00
55517;BME280;41724;51.176;-0.708;2024-02-21T11:11:05;100178.97;;;8.60;100.00
55517;BME280;41724;51.176;-0.708;2024-02-21T11:13:35;100183.17;;;8.36;100.00
55517;BME280;41724;51.176;-0.708;2024-02-21T11:16:10;100179.11;;;8.39;100.00
55517;BME280;41724;51.176;-0.708;2024-02-21T11:18:38;100160.69;;;7.70;100.00
55517;BME280;41724;51.176;-0.708;2024-02-21T11:21:05;100167.28;;;8.11;100.00
55517;BME280;41724;51.176;-0.708;2024-02-21T11:23:32;100150.16;;;7.67;100.00
55517;BME280;41724;51.176;-0.708;2024-02-21T11:26:08;100140.63;;;8.13;100.00
55517;BME280;41724;51.176;-0.708;2024-02-21T11:28:36;100124.39;;;7.40;100.00
55517;BME280;41724;51.176;-0.708;2024-02-21T11:31:07;100113.13;;;9.04;100.00
55517;BME280;41724;51.176;-0.708;2024-02-21T11:33:39;100096.97;;;9.49;100.00
55517;BME280;41724;51.176;-0.708;2024-02-21T11:36:07;100098.60;;;9.47;100.00
55517;BME280;41724;51.176;-0.708;2024-02-21T11:38:35;100091.99;;;9.23;100.00
55517;BME280;41724;51.176;-0.708;2024-02-21T11:41:02;100086.50;;;8.97;100.00
55517;BME280;41724;51.176;-0.708;2024-02-21T11:43:30;100070.98;;;8.60;100.00
55517;BME280;41724;51.176;-0.708;2024-02-21T11:46:01;100059.80;;;9.20;100.00
55517;BME280;41724;51.176;-0.708;2024-02-21T11:48:28;100051.49;;;8.81;100.00
55517;BME280;41724;51.176;-0.708;2024-02-21T11:50:55;100040.70;;;9.33;100.00
55517;BME280;41724;51.176;-0.708;2024-02-21T11:53:23;100043.39;;;8.97;100.00
55517;BME280;41724;51.176;-0.708;2024-02-21T11:55:50;100029.92;;;8.12;100.00
55517;BME280;41724;51.176;-0.708;2024-02-21T11:58:17;100028.99;;;8.06;100.00
55517;BME280;41724;51.176;-0.708;2024-02-21T12:00:44;100023.88;;;8.82;100.00
55517;BME280;41724;51.176;-0.708;2024-02-21T12:03:11;100008.01;;;8.61;100.00
55517;BME280;41724;51.176;-0.708;2024-02-21T12:05:38;100006.15;;;8.47;100.00
55517;BME280;41724;51.176;-0.708;2024-02-21T12:08:06;99976.28;;;8.20;100.00
55517;BME280;41724;51.176;-0.708;2024-02-21T12:10:34;99979.91;;;8.74;100.00
55517;BME280;41724;51.176;-0.708;2024-02-21T12:13:08;99971.91;;;9.32;100.00
55517;BME280;41724;51.176;-0.708;2024-02-21T12:15:35;99962.72;;;8.46;100.00
55517;BME280;41724;51.176;-0.708;2024-02-21T12:18:03;99958.37;;;9.02;100.00
55517;BME280;41724;51.176;-0.708;2024-02-21T12:20:31;99957.15;;;9.03;100.00
55517;BME280;41724;51.176;-0.708;2024-02-21T12:23:00;99948.14;;;8.67;100.00
55517;BME280;41724;51.176;-0.708;2024-02-21T12:25:28;99944.69;;;9.02;100.00
55517;BME280;41724;51.176;-0.708;2024-02-21T12:27:55;99926.24;;;9.32;100.00
55517;BME280;41724;51.176;-0.708;2024-02-21T12:30:22;99927.02;;;8.79;100.00
55517;BME280;41724;51.176;-0.708;2024-02-21T12:32:49;99913.00;;;8.71;100.00
55517;BME280;41724;51.176;-0.708;2024-02-21T12:35:17;99902.85;;;8.94;100.00
55517;BME280;41724;51.176;-0.708;2024-02-21T12:37:44;99904.88;;;9.23;100.00
55517;BME280;41724;51.176;-0.708;2024-02-21T12:40:11;99905.47;;;8.70;100.00
55517;BME280;41724;51.176;-0.708;2024-02-21T12:42:38;99886.79;;;8.42;100.00
55517;BME280;41724;51.176;-0.708;2024-02-21T12:45:05;99870.18;;;8.68;100.00